Time;durP1;ratioP1;P1;durP2;ratioP2;P2;SDS_P1;SDS_P2;PMS_P1;PMS_P2;Temp;Humidity;BMP_temperature;BMP_pressure;BME280_temperature;BME280_humidity;BME280_pressure;Samples;Min_cycle;Max_cycle;Signal;HPM_P1;HPM_P2
2023/12/13 00:00:35;;;;;;;;;;;;;;;10.29;82.39;99555.41;7355740;19;19960;-65
2023/12/13 00:03:01;;;;;;;;;;;;;;;10.29;82.62;99565.84;7359074;19;19927;-65
2023/12/13 00:05:26;;;;;;;;;;;;;;;10.29;82.60;99573.69;7356905;19;20493;-66
2023/12/13 00:07:51;;;;;;;;;;;;;;;10.28;82.51;99573.72;7360303;19;19926;-65
2023/12/13 00:10:17;;;;;;;;;;;;;;;10.29;82.50;99572.81;7356718;19;19919;-65
2023/12/13 00:12:42;;;;;;;;;;;;;;;10.27;82.43;99572.88;7362162;19;19960;-65
2023/12/13 00:15:08;;;;;;;;;;;;;;;10.27;82.05;99582.47;7360045;19;20000;-65
2023/12/13 00:17:33;;;;;;;;;;;;;;;10.26;82.50;99583.38;7362762;19;19935;-65
2023/12/13 00:19:58;;;;;;;;;;;;;;;10.25;82.11;99589.50;7354250;19;20815;-66
2023/12/13 00:22:23;;;;;;;;;;;;;;;10.24;82.43;99591.28;7359149;19;19911;-66
2023/12/13 00:24:49;;;;;;;;;;;;;;;10.24;82.37;99598.22;7354486;19;19926;-65
2023/12/13 00:27:14;;;;;;;;;;;;;;;10.23;82.07;99599.09;7358865;19;19940;-66
2023/12/13 00:29:39;;;;;;;;;;;;;;;10.21;82.22;99604.38;7359561;19;19922;-65
2023/12/13 00:32:05;;;;;;;;;;;;;;;10.21;82.24;99608.75;7357879;19;19929;-65
2023/12/13 00:34:30;;;;;;;;;;;;;;;10.20;82.07;99609.69;7362106;19;20441;-65
2023/12/13 00:36:56;;;;;;;;;;;;;;;10.12;82.37;99604.75;7357937;19;19930;-65
2023/12/13 00:39:21;;;;;;;;;;;;;;;10.19;82.50;99626.22;7363058;19;19922;-65
2023/12/13 00:41:47;;;;;;;;;;;;;;;10.18;82.11;99624.53;7361138;19;19927;-65
2023/12/13 00:44:12;;;;;;;;;;;;;;;10.19;82.15;99626.22;7362038;19;19918;-65
2023/12/13 00:46:39;;;;;;;;;;;;;;;10.18;82.17;99640.19;7368594;19;19930;-65
2023/12/13 00:49:04;;;;;;;;;;;;;;;10.18;82.27;99641.03;7362349;19;19930;-65
2023/12/13 00:51:30;;;;;;;;;;;;;;;10.19;82.40;99641.88;7357321;19;20388;-65
2023/12/13 00:53:55;;;;;;;;;;;;;;;10.18;82.48;99653.22;7361857;19;19945;-65
2023/12/13 00:56:21;;;;;;;;;;;;;;;10.17;82.42;99648.91;7357973;19;19919;-65
2023/12/13 00:58:47;;;;;;;;;;;;;;;10.15;82.37;99659.41;7358838;19;19915;-65
2023/12/13 01:01:13;;;;;;;;;;;;;;;10.16;82.42;99658.50;7358070;19;19922;-65
2023/12/13 01:03:38;;;;;;;;;;;;;;;10.15;82.26;99659.41;7362399;19;19918;-65
2023/12/13 01:06:06;;;;;;;;;;;;;;;10.14;82.49;99661.19;7360392;19;20866;-65
2023/12/13 01:08:31;;;;;;;;;;;;;;;10.13;82.33;99664.66;7354973;19;19939;-65
2023/12/13 01:10:57;;;;;;;;;;;;;;;10.12;82.39;99665.59;7357686;19;19986;-65
2023/12/13 01:13:22;;;;;;;;;;;;;;;10.11;82.05;99679.53;7361562;19;19926;-66
2023/12/13 01:15:47;;;;;;;;;;;;;;;10.12;82.43;99688.22;7361242;19;19918;-65
2023/12/13 01:18:12;;;;;;;;;;;;;;;10.10;82.48;99690.88;7361408;19;19919;-67
2023/12/13 01:20:38;;;;;;;;;;;;;;;10.09;82.07;99689.19;7362210;19;20292;-66
2023/12/13 01:23:03;;;;;;;;;;;;;;;10.07;82.09;99691.00;7359340;19;19919;-65
2023/12/13 01:25:28;;;;;;;;;;;;;;;10.07;82.25;99687.53;7360089;19;19917;-65
2023/12/13 01:27:57;;;;;;;;;;;;;;;10.06;82.29;99704.94;7360042;19;19915;-65
2023/12/13 01:30:22;;;;;;;;;;;;;;;10.05;82.47;99698.03;7363171;19;19951;-65
2023/12/13 01:32:48;;;;;;;;;;;;;;;10.04;82.36;99695.50;7355626;19;20316;-65
2023/12/13 01:35:13;;;;;;;;;;;;;;;10.03;82.35;99699.81;7360006;19;19915;-65
2023/12/13 01:37:38;;;;;;;;;;;;;;;10.02;82.38;99703.34;7357214;19;19929;-65
2023/12/13 01:40:05;;;;;;;;;;;;;;;10.02;82.26;99708.56;7359472;19;20286;-65
2023/12/13 01:42:30;;;;;;;;;;;;;;;10.01;82.10;99712.09;7360007;19;19942;-65
2023/12/13 01:44:55;;;;;;;;;;;;;;;10.01;82.27;99711.25;7355940;19;20332;-65
2023/12/13 01:47:21;;;;;;;;;;;;;;;10.01;82.19;99714.69;7359551;19;19940;-66
2023/12/13 01:49:46;;;;;;;;;;;;;;;10.00;82.31;99723.44;7359510;19;20186;-65
2023/12/13 01:52:12;;;;;;;;;;;;;;;10.01;82.60;99724.28;7358118;19;20670;-66
2023/12/13 01:54:38;;;;;;;;;;;;;;;10.02;82.19;99724.22;7353530;19;19930;-65
2023/12/13 01:57:04;;;;;;;;;;;;;;;10.01;82.65;99732.94;7363788;19;20489;-65
2023/12/13 01:59:30;;;;;;;;;;;;;;;10.02;82.30;99729.44;7367391;19;19925;-65
2023/12/13 02:01:56;;;;;;;;;;;;;;;10.02;82.61;99739.88;7362176;19;19922;-66
2023/12/13 02:04:23;;;;;;;;;;;;;;;10.02;82.37;99744.22;7357926;19;19927;-66
2023/12/13 02:06:48;;;;;;;;;;;;;;;10.02;82.54;99749.44;7359031;19;19978;-65
2023/12/13 02:09:14;;;;;;;;;;;;;;;10.02;82.45;99763.34;7355297;19;19970;-66
2023/12/13 02:11:39;;;;;;;;;;;;;;;10.00;82.61;99759.94;7356518;19;19918;-65
2023/12/13 02:14:04;;;;;;;;;;;;;;;9.99;82.23;99778.28;7361024;19;19922;-65
2023/12/13 02:16:32;;;;;;;;;;;;;;;9.99;82.54;99775.66;7358366;19;19919;-65
2023/12/13 02:18:57;;;;;;;;;;;;;;;9.99;82.31;99780.88;7360171;19;19947;-66
2023/12/13 02:21:24;;;;;;;;;;;;;;;9.99;82.23;99781.72;7359278;19;19919;-65
2023/12/13 02:23:51;;;;;;;;;;;;;;;9.99;82.51;99794.75;7354623;19;20727;-65
2023/12/13 02:26:16;;;;;;;;;;;;;;;10.00;82.27;99793.84;7357771;19;19934;-65
2023/12/13 02:28:41;;;;;;;;;;;;;;;9.99;82.41;99799.97;7359496;19;19927;-66
2023/12/13 02:31:08;;;;;;;;;;;;;;;9.99;82.47;99807.81;7353754;19;20254;-66
2023/12/13 02:33:34;;;;;;;;;;;;;;;9.99;82.59;99812.16;7359817;19;20393;-65
2023/12/13 02:36:00;;;;;;;;;;;;;;;9.99;82.29;99815.63;7358469;19;19911;-66
2023/12/13 02:38:26;;;;;;;;;;;;;;;10.00;82.24;99816.47;7356021;19;19938;-65
2023/12/13 02:40:52;;;;;;;;;;;;;;;10.01;82.55;99831.22;7358370;19;19907;-65
2023/12/13 02:43:18;;;;;;;;;;;;;;;10.00;82.69;99835.59;7357711;19;19930;-65
2023/12/13 02:45:43;;;;;;;;;;;;;;;9.99;82.26;99844.31;7360220;19;20016;-65
2023/12/13 02:48:08;;;;;;;;;;;;;;;10.00;82.24;99853.00;7358957;19;19947;-65
2023/12/13 02:50:36;;;;;;;;;;;;;;;10.01;82.71;99865.97;7355439;19;19907;-66
2023/12/13 02:53:03;;;;;;;;;;;;;;;9.99;82.71;99865.19;7358371;19;19926;-65
2023/12/13 02:55:28;;;;;;;;;;;;;;;10.00;82.52;99872.09;7355787;19;19930;-66
2023/12/13 02:57:53;;;;;;;;;;;;;;;10.01;82.43;99873.81;7357079;19;20653;-65
2023/12/13 03:00:18;;;;;;;;;;;;;;;10.02;82.72;99875.50;7360115;19;19914;-65
2023/12/13 03:02:44;;;;;;;;;;;;;;;10.02;82.64;99880.72;7357906;19;19939;-66
2023/12/13 03:05:09;;;;;;;;;;;;;;;10.01;82.28;99889.44;7333280;19;19915;-65
2023/12/13 03:07:34;;;;;;;;;;;;;;;10.03;82.24;99892.00;7369107;19;19918;-66
2023/12/13 03:09:59;;;;;;;;;;;;;;;10.02;82.71;99906.78;7361584;19;20006;-65
2023/12/13 03:12:25;;;;;;;;;;;;;;;10.03;82.68;99916.31;7357725;19;20344;-65
2023/12/13 03:14:50;;;;;;;;;;;;;;;10.02;82.59;99919.84;7358046;19;20368;-65
2023/12/13 03:17:16;;;;;;;;;;;;;;;10.01;82.45;99923.34;7362600;19;20384;-65
2023/12/13 03:19:41;;;;;;;;;;;;;;;10.01;82.55;99925.97;7366280;19;19982;-65
2023/12/13 03:22:06;;;;;;;;;;;;;;;10.00;82.62;99934.69;7375588;19;19935;-65
2023/12/13 03:24:32;;;;;;;;;;;;;;;9.98;82.43;99944.31;7375922;19;19915;-65
2023/12/13 03:26:57;;;;;;;;;;;;;;;9.97;82.46;99953.03;7371787;19;19955;-65
2023/12/13 03:29:22;;;;;;;;;;;;;;;9.97;82.37;99953.03;7373308;19;19928;-65
2023/12/13 03:31:48;;;;;;;;;;;;;;;9.96;82.07;99958.31;7361948;19;19919;-65
2023/12/13 03:34:14;;;;;;;;;;;;;;;9.93;82.46;99956.66;7368137;19;19929;-65
2023/12/13 03:36:39;;;;;;;;;;;;;;;9.93;82.31;99959.25;7363399;19;19922;-66
2023/12/13 03:39:05;;;;;;;;;;;;;;;9.91;82.32;99953.25;7363938;19;20816;-65
2023/12/13 03:41:30;;;;;;;;;;;;;;;9.92;82.58;99957.56;7370768;19;19935;-65
2023/12/13 03:43:56;;;;;;;;;;;;;;;9.92;82.54;99960.16;7371408;19;19931;-66
2023/12/13 03:46:21;;;;;;;;;;;;;;;9.92;82.61;99962.78;7366167;19;19916;-65
2023/12/13 03:48:46;;;;;;;;;;;;;;;9.92;82.63;99970.59;7372674;19;19930;-65
2023/12/13 03:51:11;;;;;;;;;;;;;;;9.93;82.23;99974.06;7369508;19;19907;-66
2023/12/13 03:53:39;;;;;;;;;;;;;;;9.92;82.34;99978.41;7365702;19;19992;-66
2023/12/13 03:56:04;;;;;;;;;;;;;;;9.91;82.53;99971.50;7372461;19;20312;-66
2023/12/13 03:58:30;;;;;;;;;;;;;;;9.91;82.27;99979.31;7369155;19;19967;-66
2023/12/13 04:00:55;;;;;;;;;;;;;;;9.91;82.19;99974.09;7359922;19;19982;-66
2023/12/13 04:03:21;;;;;;;;;;;;;;;9.91;82.49;99986.31;7369303;19;20010;-65
2023/12/13 04:05:46;;;;;;;;;;;;;;;9.90;82.18;99990.66;7366272;19;20352;-65
2023/12/13 04:08:11;;;;;;;;;;;;;;;9.91;82.18;100001.94;7370194;19;19933;-66
2023/12/13 04:10:37;;;;;;;;;;;;;;;9.90;82.45;100000.25;7367715;19;19918;-66
2023/12/13 04:13:02;;;;;;;;;;;;;;;9.89;82.23;100009.81;7365462;19;19990;-66
2023/12/13 04:15:27;;;;;;;;;;;;;;;9.76;82.28;99998.91;7369626;19;20625;-65
2023/12/13 04:17:52;;;;;;;;;;;;;;;9.85;82.18;100018.63;7337980;19;19919;-65
2023/12/13 04:20:18;;;;;;;;;;;;;;;9.83;82.05;100030.84;7376147;19;19990;-66
2023/12/13 04:22:44;;;;;;;;;;;;;;;9.78;82.00;100035.34;7368581;19;19918;-66
2023/12/13 04:25:09;;;;;;;;;;;;;;;9.75;81.37;100043.28;7371685;19;20273;-65
2023/12/13 04:27:34;;;;;;;;;;;;;;;9.71;81.32;100042.50;7366552;19;19919;-66
2023/12/13 04:30:00;;;;;;;;;;;;;;;9.67;81.41;100050.47;7365674;19;19922;-65
2023/12/13 04:32:25;;;;;;;;;;;;;;;9.62;81.47;100054.06;7365863;19;20756;-66
2023/12/13 04:34:50;;;;;;;;;;;;;;;9.60;81.64;100055.88;7369524;19;19922;-65
2023/12/13 04:37:15;;;;;;;;;;;;;;;9.52;81.86;100043.94;7366789;19;20742;-65
2023/12/13 04:39:41;;;;;;;;;;;;;;;9.55;81.61;100065.56;7368181;19;19925;-66
2023/12/13 04:42:06;;;;;;;;;;;;;;;9.54;81.79;100069.09;7367133;19;20290;-65
2023/12/13 04:44:31;;;;;;;;;;;;;;;9.14;81.93;100000.75;7367095;19;19983;-66
2023/12/13 04:46:57;;;;;;;;;;;;;;;9.52;81.99;100073.47;7361809;19;19915;-66
2023/12/13 04:49:22;;;;;;;;;;;;;;;9.51;81.96;100079.59;7368231;19;20266;-65
2023/12/13 04:51:48;;;;;;;;;;;;;;;9.48;81.94;100074.47;7368743;19;19922;-65
2023/12/13 04:54:14;;;;;;;;;;;;;;;9.47;81.87;100088.38;7365980;19;19923;-66
2023/12/13 04:56:39;;;;;;;;;;;;;;;9.46;81.96;100084.06;7366705;19;19932;-65
2023/12/13 04:59:04;;;;;;;;;;;;;;;9.44;81.70;100091.09;7366063;19;19939;-65
2023/12/13 05:01:29;;;;;;;;;;;;;;;9.40;81.15;100094.66;7365944;19;19946;-66
2023/12/13 05:03:55;;;;;;;;;;;;;;;9.38;81.26;100101.69;7363147;19;19919;-66
2023/12/13 05:06:20;;;;;;;;;;;;;;;9.35;81.31;100106.97;7369207;19;19918;-65
2023/12/13 05:08:48;;;;;;;;;;;;;;;9.32;81.30;100114.84;7372018;19;19915;-65
2023/12/13 05:11:14;;;;;;;;;;;;;;;9.30;81.50;100125.31;7372481;19;20655;-66
2023/12/13 05:13:39;;;;;;;;;;;;;;;9.29;81.52;100122.78;7364861;19;19914;-65
2023/12/13 05:16:05;;;;;;;;;;;;;;;9.29;81.48;100135.81;7365893;19;19910;-66
2023/12/13 05:18:30;;;;;;;;;;;;;;;9.28;81.51;100136.72;7367734;19;19926;-66
2023/12/13 05:20:55;;;;;;;;;;;;;;;9.28;81.78;100136.72;7364512;19;19911;-66
2023/12/13 05:23:21;;;;;;;;;;;;;;;9.28;81.71;100137.56;7369240;19;19923;-66
2023/12/13 05:25:46;;;;;;;;;;;;;;;9.28;82.00;100136.72;7353329;19;19931;-66
2023/12/13 05:28:11;;;;;;;;;;;;;;;9.29;81.86;100138.41;7367677;19;19926;-66
2023/12/13 05:30:37;;;;;;;;;;;;;;;9.28;81.86;100136.72;7361335;19;19934;-66
2023/12/13 05:33:02;;;;;;;;;;;;;;;9.28;81.55;100139.31;7366103;19;19975;-66
2023/12/13 05:35:27;;;;;;;;;;;;;;;9.28;81.52;100139.31;7366083;19;19915;-65
2023/12/13 05:37:53;;;;;;;;;;;;;;;9.26;81.50;100148.91;7371570;19;19954;-66
2023/12/13 05:40:18;;;;;;;;;;;;;;;9.24;81.24;100155.91;7365376;19;19940;-65
2023/12/13 05:42:43;;;;;;;;;;;;;;;9.20;80.93;100162.09;7370332;19;20008;-65
2023/12/13 05:45:08;;;;;;;;;;;;;;;9.16;81.21;100169.13;7365363;19;20246;-66
2023/12/13 05:47:34;;;;;;;;;;;;;;;9.10;80.90;100175.34;7366262;19;19967;-66
2023/12/13 05:49:59;;;;;;;;;;;;;;;9.06;80.83;100178.91;7366387;19;19936;-66
2023/12/13 05:52:24;;;;;;;;;;;;;;;9.02;81.12;100186.84;7365044;19;19915;-65
2023/12/13 05:54:49;;;;;;;;;;;;;;;8.98;80.98;100185.22;7365027;19;19946;-65
2023/12/13 05:57:15;;;;;;;;;;;;;;;8.93;80.63;100197.50;7363760;19;19922;-66
2023/12/13 05:59:40;;;;;;;;;;;;;;;8.88;80.91;100200.22;7364362;19;19919;-65
2023/12/13 06:02:05;;;;;;;;;;;;;;;8.83;80.46;100191.66;7361989;19;19953;-66
2023/12/13 06:04:31;;;;;;;;;;;;;;;8.78;80.57;100206.53;7374254;19;20255;-66
2023/12/13 06:06:56;;;;;;;;;;;;;;;8.73;80.27;100201.41;7363807;19;19922;-66
2023/12/13 06:09:21;;;;;;;;;;;;;;;8.68;80.51;100202.41;7366267;19;19923;-65
2023/12/13 06:11:46;;;;;;;;;;;;;;;8.64;80.32;100205.97;7357802;19;19923;-65
2023/12/13 06:14:12;;;;;;;;;;;;;;;8.58;80.13;100214.78;7362793;19;20291;-66
2023/12/13 06:16:37;;;;;;;;;;;;;;;8.53;79.68;100209.69;7366407;19;19972;-65
2023/12/13 06:19:02;;;;;;;;;;;;;;;8.47;79.95;100217.63;7366710;19;19918;-65
2023/12/13 06:21:27;;;;;;;;;;;;;;;8.44;79.65;100225.47;7365009;19;20794;-66
2023/12/13 06:23:53;;;;;;;;;;;;;;;8.39;79.66;100227.34;7361001;19;19923;-65
2023/12/13 06:26:18;;;;;;;;;;;;;;;8.36;79.91;100226.50;7363549;19;19919;-66
2023/12/13 06:28:43;;;;;;;;;;;;;;;8.31;80.02;100230.06;7364538;19;20897;-65
2023/12/13 06:31:09;;;;;;;;;;;;;;;8.29;79.75;100246.59;7362312;19;19932;-65
2023/12/13 06:33:34;;;;;;;;;;;;;;;8.24;80.11;100246.69;7363455;19;19939;-66
2023/12/13 06:35:59;;;;;;;;;;;;;;;8.22;79.72;100255.41;7355231;19;19926;-65
2023/12/13 06:38:24;;;;;;;;;;;;;;;8.18;80.09;100261.56;7360823;19;19915;-65
2023/12/13 06:40:50;;;;;;;;;;;;;;;8.16;79.89;100278.91;7364123;19;19922;-66
2023/12/13 06:43:16;;;;;;;;;;;;;;;8.13;79.56;100277.25;7364520;19;19915;-66
2023/12/13 06:45:41;;;;;;;;;;;;;;;8.11;79.85;100283.34;7363433;19;20389;-65
2023/12/13 06:48:06;;;;;;;;;;;;;;;8.07;79.66;100286.03;7365308;19;20407;-65
2023/12/13 06:50:32;;;;;;;;;;;;;;;8.05;79.63;100300.78;7362521;19;19967;-65
2023/12/13 06:52:57;;;;;;;;;;;;;;;8.02;79.91;100302.63;7372633;19;19930;-65
2023/12/13 06:55:22;;;;;;;;;;;;;;;7.99;79.79;100305.25;7362663;19;19926;-66
2023/12/13 06:57:48;;;;;;;;;;;;;;;7.96;79.73;100306.19;7358569;19;19915;-66
2023/12/13 07:00:14;;;;;;;;;;;;;;;7.93;79.82;100314.03;7363346;19;19939;-66
2023/12/13 07:02:39;;;;;;;;;;;;;;;7.91;80.12;100318.41;7363312;19;19998;-65
2023/12/13 07:05:07;;;;;;;;;;;;;;;7.88;79.64;100310.66;7360553;19;19934;-65
2023/12/13 07:07:32;;;;;;;;;;;;;;;7.85;79.59;100315.91;7363324;19;19915;-66
2023/12/13 07:09:57;;;;;;;;;;;;;;;7.82;79.48;100323.78;7363325;19;19925;-66
2023/12/13 07:12:27;;;;;;;;;;;;;;;7.81;79.82;100327.25;7366392;19;19911;-66
2023/12/13 07:14:52;;;;;;;;;;;;;;;7.77;79.27;100331.66;7359772;19;19930;-66
2023/12/13 07:17:17;;;;;;;;;;;;;;;7.75;79.60;100332.53;7358926;19;19940;-65
2023/12/13 07:19:43;;;;;;;;;;;;;;;7.72;79.78;100343.84;7362268;19;19923;-65
2023/12/13 07:22:08;;;;;;;;;;;;;;;7.70;79.54;100349.94;7361675;19;20387;-65
2023/12/13 07:24:33;;;;;;;;;;;;;;;7.67;79.80;100350.03;7363670;19;19923;-66
2023/12/13 07:26:58;;;;;;;;;;;;;;;7.65;79.60;100357.81;7360628;19;19923;-65
2023/12/13 07:29:24;;;;;;;;;;;;;;;7.63;80.00;100366.53;7369910;19;19951;-66
2023/12/13 07:31:50;;;;;;;;;;;;;;;7.61;79.70;100363.13;7367235;19;20377;-65
2023/12/13 07:34:15;;;;;;;;;;;;;;;7.58;79.62;100369.22;7364177;19;19927;-65
2023/12/13 07:36:45;;;;;;;;;;;;;;;7.56;79.85;100372.72;7359113;19;20390;-66
2023/12/13 07:39:11;;;;;;;;;;;;;;;7.52;79.35;100380.56;7362246;19;19918;-65
2023/12/13 07:41:36;;;;;;;;;;;;;;;7.51;79.46;100381.44;7362726;19;20372;-65
2023/12/13 07:44:02;;;;;;;;;;;;;;;7.50;79.50;100382.34;7368020;19;19929;-65
2023/12/13 07:46:27;;;;;;;;;;;;;;;7.47;79.52;100391.91;7366781;19;19919;-65
2023/12/13 07:48:54;;;;;;;;;;;;;;;7.45;79.92;100386.75;7359839;19;20563;-65
2023/12/13 07:51:19;;;;;;;;;;;;;;;7.44;79.43;100394.53;7359835;19;19915;-66
2023/12/13 07:53:44;;;;;;;;;;;;;;;7.42;79.76;100397.16;7355757;19;19923;-66
2023/12/13 07:56:10;;;;;;;;;;;;;;;7.40;79.89;100396.34;7362183;19;19925;-65
2023/12/13 07:58:35;;;;;;;;;;;;;;;7.38;79.57;100395.47;7360675;19;20355;-65
2023/12/13 08:01:00;;;;;;;;;;;;;;;7.37;79.78;100396.38;7358380;19;20719;-66
2023/12/13 08:03:26;;;;;;;;;;;;;;;7.36;79.67;100402.47;7359890;19;20728;-65
2023/12/13 08:05:51;;;;;;;;;;;;;;;7.34;79.97;100399.00;7365028;19;19918;-66
2023/12/13 08:08:16;;;;;;;;;;;;;;;7.33;79.57;100402.47;7368318;19;19947;-65
2023/12/13 08:10:43;;;;;;;;;;;;;;;7.32;79.73;100400.78;7369502;19;19919;-65
2023/12/13 08:13:08;;;;;;;;;;;;;;;7.30;79.74;100412.94;7369935;19;20388;-66
2023/12/13 08:15:34;;;;;;;;;;;;;;;7.29;79.99;100400.81;7373795;19;20310;-66
2023/12/13 08:17:59;;;;;;;;;;;;;;;7.28;79.97;100425.06;7373812;19;19919;-66
2023/12/13 08:20:29;;;;;;;;;;;;;;;7.27;79.75;100423.34;7365241;19;19926;-66
2023/12/13 08:22:54;;;;;;;;;;;;;;;7.25;80.10;100432.91;7361112;19;19911;-66
2023/12/13 08:25:19;;;;;;;;;;;;;;;7.23;80.06;100437.25;7362027;19;19935;-65
2023/12/13 08:27:44;;;;;;;;;;;;;;;7.22;80.12;100440.75;7357339;19;20361;-65
2023/12/13 08:30:10;;;;;;;;;;;;;;;7.18;79.60;100446.84;7364261;19;19911;-65
2023/12/13 08:32:35;;;;;;;;;;;;;;;7.18;79.83;100449.44;7358266;19;19955;-66
2023/12/13 08:35:00;;;;;;;;;;;;;;;7.15;79.55;100449.50;7366497;19;19911;-65
2023/12/13 08:37:25;;;;;;;;;;;;;;;7.14;79.99;100459.00;7368068;19;19950;-65
2023/12/13 08:39:52;;;;;;;;;;;;;;;7.12;79.80;100452.13;7365662;19;19990;-65
2023/12/13 08:42:19;;;;;;;;;;;;;;;7.11;79.60;100473.78;7357908;19;20001;-65
2023/12/13 08:44:44;;;;;;;;;;;;;;;7.09;80.02;100485.91;7363563;19;19915;-66
2023/12/13 08:47:09;;;;;;;;;;;;;;;7.08;79.65;100481.59;7329373;19;19943;-66
2023/12/13 08:49:34;;;;;;;;;;;;;;;7.06;79.58;100480.75;7358904;19;19918;-65
2023/12/13 08:52:00;;;;;;;;;;;;;;;7.05;79.58;100489.44;7364120;19;19922;-65
2023/12/13 08:54:25;;;;;;;;;;;;;;;7.02;79.67;100490.31;7358542;19;20000;-65
2023/12/13 08:56:51;;;;;;;;;;;;;;;7.01;80.27;100505.03;7363010;19;19931;-66
2023/12/13 08:59:16;;;;;;;;;;;;;;;7.00;80.12;100503.31;7366216;19;19918;-65
2023/12/13 09:01:42;;;;;;;;;;;;;;;7.00;80.13;100505.91;7369486;19;19947;-65
2023/12/13 09:04:07;;;;;;;;;;;;;;;6.99;80.23;100501.63;7370114;19;19915;-65
2023/12/13 09:06:32;;;;;;;;;;;;;;;6.99;80.03;100517.19;7365219;19;19922;-65
2023/12/13 09:08:58;;;;;;;;;;;;;;;6.98;80.35;100515.44;7367863;19;20340;-65
2023/12/13 09:11:24;;;;;;;;;;;;;;;6.98;79.93;100525.81;7363266;19;19918;-65
2023/12/13 09:13:49;;;;;;;;;;;;;;;6.96;80.40;100527.59;7372345;19;20348;-65
2023/12/13 09:16:14;;;;;;;;;;;;;;;6.96;80.17;100537.97;7371660;19;20312;-65
2023/12/13 09:18:43;;;;;;;;;;;;;;;6.95;80.16;100543.19;7364309;19;21276;-66
2023/12/13 09:21:08;;;;;;;;;;;;;;;6.94;80.13;100554.44;7364669;19;20020;-65
2023/12/13 09:23:36;;;;;;;;;;;;;;;6.94;80.17;100559.63;7363670;19;19927;-65
2023/12/13 09:26:04;;;;;;;;;;;;;;;6.93;79.87;100563.97;7369731;19;19926;-65
2023/12/13 09:28:29;;;;;;;;;;;;;;;6.92;80.11;100567.44;7362496;19;20255;-65
2023/12/13 09:30:54;;;;;;;;;;;;;;;6.92;80.23;100570.03;7364092;19;19914;-65
2023/12/13 09:33:20;;;;;;;;;;;;;;;6.91;79.82;100581.28;7362455;19;19986;-65
2023/12/13 09:35:45;;;;;;;;;;;;;;;6.91;79.98;100580.44;7360704;19;19922;-65
2023/12/13 09:38:10;;;;;;;;;;;;;;;6.90;80.08;100594.28;7367633;19;19947;-65
2023/12/13 09:40:35;;;;;;;;;;;;;;;6.89;80.37;100598.59;7371590;19;19923;-66
2023/12/13 09:43:01;;;;;;;;;;;;;;;6.89;80.04;100608.13;7369703;19;19932;-65
2023/12/13 09:45:28;;;;;;;;;;;;;;;6.90;80.59;100610.72;7350017;19;19911;-65
2023/12/13 09:47:54;;;;;;;;;;;;;;;6.91;80.45;100616.78;7361106;19;20329;-66
2023/12/13 09:50:21;;;;;;;;;;;;;;;6.92;80.42;100619.34;7359011;19;19926;-67
2023/12/13 09:52:46;;;;;;;;;;;;;;;6.94;80.40;100612.41;7364077;19;19934;-65
2023/12/13 09:55:14;;;;;;;;;;;;;;;6.96;80.90;100605.47;7361313;19;19939;-65
2023/12/13 09:57:39;;;;;;;;;;;;;;;7.00;80.85;100601.13;7363177;19;20617;-65
2023/12/13 10:00:07;;;;;;;;;;;;;;;7.05;81.23;100604.53;7366776;19;19915;-65
2023/12/13 10:02:33;;;;;;;;;;;;;;;7.09;81.51;100606.19;7368210;19;19929;-66
2023/12/13 10:04:59;;;;;;;;;;;;;;;7.12;81.58;100600.13;7370103;19;19994;-65
2023/12/13 10:07:25;;;;;;;;;;;;;;;7.28;82.21;100612.06;7360781;19;19919;-65
2023/12/13 10:09:50;;;;;;;;;;;;;;;7.43;82.61;100611.91;7362129;19;20686;-65
2023/12/13 10:12:16;;;;;;;;;;;;;;;7.63;83.17;100614.28;7360444;19;19919;-65
2023/12/13 10:14:43;;;;;;;;;;;;;;;7.87;83.21;100617.47;7362981;19;20304;-65
2023/12/13 10:17:08;;;;;;;;;;;;;;;8.11;83.71;100611.94;7359350;19;20525;-66
2023/12/13 10:19:34;;;;;;;;;;;;;;;8.36;84.11;100616.75;7358268;19;19910;-65
2023/12/13 10:22:00;;;;;;;;;;;;;;;8.47;83.93;100597.53;7360573;19;19919;-65
2023/12/13 10:24:25;;;;;;;;;;;;;;;8.85;84.21;100616.88;7364645;19;19915;-65
2023/12/13 10:26:51;;;;;;;;;;;;;;;9.10;84.30;100618.16;7363311;19;20183;-66
2023/12/13 10:29:16;;;;;;;;;;;;;;;9.35;84.57;100628.13;7357258;19;19919;-65
2023/12/13 10:31:44;;;;;;;;;;;;;;;9.58;84.28;100631.16;7359703;19;19919;-65
2023/12/13 10:34:09;;;;;;;;;;;;;;;9.80;84.23;100635.94;7357652;19;20485;-65
2023/12/13 10:36:35;;;;;;;;;;;;;;;10.02;83.98;100637.19;7362248;19;19919;-65
2023/12/13 10:39:01;;;;;;;;;;;;;;;10.24;83.96;100641.97;7363622;19;20024;-65
2023/12/13 10:41:27;;;;;;;;;;;;;;;10.47;83.77;100637.09;7359994;19;21789;-65
2023/12/13 10:43:57;;;;;;;;;;;;;;;10.70;83.58;100638.34;7358164;19;19919;-65
2023/12/13 10:46:22;;;;;;;;;;;;;;;10.91;83.53;100641.25;7359493;19;19990;-65
2023/12/13 10:48:52;;;;;;;;;;;;;;;11.14;83.68;100653.72;7366318;19;20236;-65
2023/12/13 10:51:18;;;;;;;;;;;;;;;11.35;83.37;100667.13;7350224;19;20328;-66
2023/12/13 10:53:44;;;;;;;;;;;;;;;11.52;82.11;100672.78;7363838;19;19915;-66
2023/12/13 10:56:10;;;;;;;;;;;;;;;11.67;82.38;100684.59;7356258;19;19918;-65
2023/12/13 10:58:36;;;;;;;;;;;;;;;11.82;81.47;100693.81;7362122;19;20569;-65
2023/12/13 11:01:01;;;;;;;;;;;;;;;11.98;81.56;100700.31;7355955;19;19926;-65
2023/12/13 11:03:32;;;;;;;;;;;;;;;12.15;80.62;100705.91;7362505;19;19917;-65
2023/12/13 11:05:57;;;;;;;;;;;;;;;12.35;80.78;100714.97;7356508;19;19955;-65
2023/12/13 11:08:22;;;;;;;;;;;;;;;12.57;80.68;100716.03;7361582;19;19923;-66
2023/12/13 11:10:58;;;;;;;;;;;;;;;12.76;80.52;100712.84;7359579;19;19929;-65
2023/12/13 11:13:23;;;;;;;;;;;;;;;12.99;80.23;100720.84;7356903;19;20591;-65
2023/12/13 11:15:48;;;;;;;;;;;;;;;13.19;79.95;100723.66;7352855;19;19956;-65
2023/12/13 11:18:15;;;;;;;;;;;;;;;13.41;80.16;100720.34;7355091;19;19915;-65
2023/12/13 11:20:48;;;;;;;;;;;;;;;13.60;79.45;100716.19;7360873;19;20707;-65
2023/12/13 11:23:16;;;;;;;;;;;;;;;13.83;79.39;100722.38;7363626;19;19923;-65
2023/12/13 11:25:44;;;;;;;;;;;;;;;14.01;80.07;100706.81;7355748;19;19923;-65
2023/12/13 11:28:18;;;;;;;;;;;;;;;14.23;79.66;100709.50;7360313;19;19919;-65
2023/12/13 11:30:44;;;;;;;;;;;;;;;14.41;79.08;100709.72;7360060;19;19919;-65
2023/12/13 11:33:11;;;;;;;;;;;;;;;14.57;78.69;100707.38;7357097;19;19926;-65
2023/12/13 11:35:36;;;;;;;;;;;;;;;14.72;78.76;100714.66;7359822;19;19951;-65
2023/12/13 11:38:03;;;;;;;;;;;;;;;14.88;78.56;100705.25;7357911;19;19918;-65
2023/12/13 11:40:28;;;;;;;;;;;;;;;15.04;77.85;100713.38;7358002;19;19911;-65
2023/12/13 11:42:54;;;;;;;;;;;;;;;15.20;78.12;100717.06;7368954;19;19932;-65
2023/12/13 11:45:20;;;;;;;;;;;;;;;15.37;78.29;100708.50;7359208;19;20827;-65
2023/12/13 11:47:46;;;;;;;;;;;;;;;15.52;78.02;100715.72;7366410;19;19943;-65
2023/12/13 11:50:13;;;;;;;;;;;;;;;15.65;77.01;100712.59;7365520;19;19998;-65
2023/12/13 11:52:38;;;;;;;;;;;;;;;15.77;77.32;100720.81;7357483;19;19921;-65
2023/12/13 11:55:05;;;;;;;;;;;;;;;15.92;76.88;100715.81;7367745;19;19914;-65
2023/12/13 11:57:30;;;;;;;;;;;;;;;16.09;76.74;100718.53;7367822;19;20346;-65
2023/12/13 11:59:56;;;;;;;;;;;;;;;16.26;77.21;100715.97;7363331;19;19919;-65
2023/12/13 12:02:21;;;;;;;;;;;;;;;16.45;76.46;100723.03;7366572;19;19914;-65
2023/12/13 12:04:48;;;;;;;;;;;;;;;16.64;76.92;100713.31;7366615;19;19915;-65
2023/12/13 12:07:17;;;;;;;;;;;;;;;16.79;76.52;100717.06;7364783;19;20603;-65
2023/12/13 12:09:49;;;;;;;;;;;;;;;16.93;76.34;100716.34;7359809;19;20002;-65
2023/12/13 12:12:15;;;;;;;;;;;;;;;17.08;76.49;100720.88;7365835;19;20352;-65
2023/12/13 12:14:45;;;;;;;;;;;;;;;17.24;76.36;100727.13;7363762;19;19947;-65
2023/12/13 12:17:11;;;;;;;;;;;;;;;17.40;76.20;100734.28;7365988;19;19959;-65
2023/12/13 12:19:37;;;;;;;;;;;;;;;17.55;76.00;100736.16;7366816;19;19947;-65
2023/12/13 12:22:02;;;;;;;;;;;;;;;17.70;75.43;100735.34;7370518;19;19985;-65
2023/12/13 12:24:28;;;;;;;;;;;;;;;17.85;75.72;100734.59;7373066;19;19929;-65
2023/12/13 12:26:54;;;;;;;;;;;;;;;18.00;75.36;100732.94;7364863;19;19956;-65
2023/12/13 12:29:19;;;;;;;;;;;;;;;18.12;75.16;100728.78;7360545;19;19918;-65
2023/12/13 12:31:45;;;;;;;;;;;;;;;18.23;75.01;100729.03;7366481;19;19943;-65
2023/12/13 12:34:12;;;;;;;;;;;;;;;18.36;75.37;100729.25;7363968;19;19967;-65
2023/12/13 12:36:37;;;;;;;;;;;;;;;18.48;75.22;100733.84;7348247;19;19934;-65